createdAt,value
2022-12-04T00:01:08.974Z,83.01
2022-12-04T00:03:36.496Z,84.67
2022-12-04T00:06:13.844Z,85.92
2022-12-04T00:08:40.831Z,81.98
2022-12-04T00:11:09.009Z,80.82
2022-12-04T00:13:36.128Z,83.71
2022-12-04T00:16:07.877Z,86.05
2022-12-04T00:18:35.393Z,81.34
2022-12-04T00:21:06.452Z,88.11
2022-12-04T00:23:33.941Z,86.61
2022-12-04T00:26:02.633Z,84.51
2022-12-04T00:28:29.089Z,84.94
2022-12-04T00:30:55.908Z,85.74
2022-12-04T00:33:22.860Z,87.33
2022-12-04T00:35:56.114Z,85.80
2022-12-04T00:38:22.575Z,88.75
2022-12-04T00:40:50.859Z,85.77
2022-12-04T00:43:17.638Z,84.11
2022-12-04T00:45:44.094Z,85.41
2022-12-04T00:48:10.709Z,84.75
2022-12-04T00:50:37.560Z,84.71
2022-12-04T00:53:04.292Z,84.02
2022-12-04T00:55:30.768Z,83.03
2022-12-04T00:57:59.879Z,82.42
2022-12-04T01:00:26.708Z,83.21
2022-12-04T01:02:53.136Z,82.12
2022-12-04T01:05:19.781Z,82.94
2022-12-04T01:07:46.240Z,82.68
2022-12-04T01:10:13.460Z,81.74
2022-12-04T01:12:39.889Z,83.93
2022-12-04T01:15:06.821Z,81.73
2022-12-04T01:17:33.265Z,85.49
2022-12-04T01:19:59.697Z,82.85
2022-12-04T01:22:26.126Z,82.92
2022-12-04T01:24:56.402Z,81.71
2022-12-04T01:27:23.755Z,86.54
2022-12-04T01:29:50.330Z,85.56
2022-12-04T01:32:16.921Z,84.66
2022-12-04T01:34:43.470Z,86.91
2022-12-04T01:37:09.898Z,87.30
2022-12-04T01:39:37.295Z,87.31
2022-12-04T01:42:05.033Z,84.20
2022-12-04T01:44:32.370Z,87.66
2022-12-04T01:47:00.949Z,86.63
2022-12-04T01:49:41.318Z,84.49
2022-12-04T01:52:15.942Z,82.29
2022-12-04T01:54:46.102Z,86.88
2022-12-04T01:57:18.599Z,84.44
2022-12-04T01:59:55.902Z,86.03
2022-12-04T02:02:27.504Z,85.53
2022-12-04T02:04:54.421Z,86.06
2022-12-04T02:07:20.887Z,87.32
2022-12-04T02:09:53.904Z,83.20
2022-12-04T02:12:36.760Z,84.48
2022-12-04T02:15:21.270Z,85.13
2022-12-04T02:17:59.376Z,86.05
2022-12-04T02:20:56.760Z,87.08
2022-12-04T02:23:48.198Z,87.33
2022-12-04T02:26:29.495Z,86.43
2022-12-04T02:29:08.901Z,84.55
2022-12-04T02:31:51.981Z,87.18
2022-12-04T02:34:45.790Z,88.17
2022-12-04T02:37:30.470Z,87.88
2022-12-04T02:40:16.848Z,84.36
2022-12-04T02:43:03.471Z,88.22
2022-12-04T02:45:36.695Z,88.20
2022-12-04T02:48:07.599Z,87.06
2022-12-04T02:50:39.392Z,84.44
2022-12-04T02:53:10.432Z,86.48
2022-12-04T02:55:49.427Z,88.11
2022-12-04T02:58:21.517Z,83.94
2022-12-04T03:00:49.313Z,86.42
2022-12-04T03:03:27.665Z,82.98
2022-12-04T03:06:05.569Z,82.61
2022-12-04T03:08:40.348Z,82.95
2022-12-04T03:11:06.847Z,83.84
2022-12-04T03:13:42.966Z,84.61
2022-12-04T03:16:33.403Z,82.69
2022-12-04T03:19:12.064Z,86.02
2022-12-04T03:21:46.658Z,83.91
2022-12-04T03:24:15.218Z,84.72
2022-12-04T03:26:55.680Z,88.09
2022-12-04T03:29:34.291Z,88.38
2022-12-04T03:32:25.197Z,88.17
2022-12-04T03:35:05.398Z,83.57
2022-12-04T03:38:00.643Z,86.35
2022-12-04T03:40:30.984Z,86.79
2022-12-04T03:43:05.875Z,86.00
2022-12-04T03:45:47.288Z,86.20
2022-12-04T03:48:25.813Z,84.27
2022-12-04T03:51:07.436Z,80.94
2022-12-04T03:53:41.693Z,81.45
2022-12-04T03:56:15.863Z,81.60
2022-12-04T03:58:48.714Z,84.89
2022-12-04T04:01:20.104Z,81.94
2022-12-04T04:03:51.024Z,84.92
2022-12-04T04:06:30.729Z,87.02
2022-12-04T04:09:01.983Z,83.72
2022-12-04T04:11:38.778Z,81.51
2022-12-04T04:14:40.254Z,83.19
2022-12-04T04:17:34.936Z,85.82
2022-12-04T04:20:27.606Z,85.44
2022-12-04T04:23:16.933Z,83.80
2022-12-04T04:25:45.595Z,82.42
2022-12-04T04:28:31.866Z,82.49
2022-12-04T04:31:30.666Z,79.67
2022-12-04T04:34:02.950Z,79.11
2022-12-04T04:36:51.119Z,80.42
2022-12-04T04:39:55.115Z,79.70
2022-12-04T04:42:29.833Z,80.40
2022-12-04T04:45:12.363Z,80.66
2022-12-04T04:47:47.460Z,81.04
2022-12-04T04:50:15.808Z,79.68
2022-12-04T04:52:46.695Z,79.06
2022-12-04T04:55:16.154Z,80.14
2022-12-04T04:57:43.143Z,79.74
2022-12-04T05:00:15.902Z,79.10
2022-12-04T05:02:43.080Z,81.21
2022-12-04T05:05:09.877Z,79.90
2022-12-04T05:07:36.459Z,79.43
2022-12-04T05:10:03.327Z,78.59
2022-12-04T05:12:29.748Z,79.36
2022-12-04T05:14:56.152Z,79.56
2022-12-04T05:17:22.746Z,78.16
2022-12-04T05:19:56.728Z,79.12
2022-12-04T05:22:32.074Z,77.97
2022-12-04T05:24:59.171Z,82.52
2022-12-04T05:27:26.948Z,82.00
2022-12-04T05:29:55.333Z,82.93
2022-12-04T05:32:23.804Z,84.39
2022-12-04T05:34:51.763Z,85.42
2022-12-04T05:37:18.945Z,84.39
2022-12-04T05:39:45.939Z,84.38
2022-12-04T05:42:12.942Z,84.90
2022-12-04T05:44:39.470Z,85.86
2022-12-04T05:47:06.424Z,82.27
2022-12-04T05:49:34.072Z,83.01
2022-12-04T05:52:02.033Z,85.93
2022-12-04T05:54:28.458Z,85.16
2022-12-04T05:56:54.910Z,86.38
2022-12-04T05:59:21.931Z,85.21
2022-12-04T06:01:48.482Z,86.24
2022-12-04T06:04:14.950Z,86.25
2022-12-04T06:06:41.456Z,83.77
2022-12-04T06:09:08.902Z,83.10
2022-12-04T06:11:38.626Z,83.98
2022-12-04T06:14:08.425Z,85.04
2022-12-04T06:16:38.820Z,84.88
2022-12-04T06:19:08.148Z,85.47
2022-12-04T06:21:37.176Z,86.23
2022-12-04T06:24:04.453Z,85.65
2022-12-04T06:26:30.959Z,86.90
2022-12-04T06:28:59.033Z,85.44
2022-12-04T06:31:27.532Z,85.50
2022-12-04T06:33:56.084Z,87.07
2022-12-04T06:36:23.490Z,85.78
2022-12-04T06:38:51.773Z,87.48
2022-12-04T06:41:20.405Z,84.87
2022-12-04T06:43:46.939Z,88.28
2022-12-04T06:46:16.168Z,84.55
2022-12-04T06:48:43.111Z,87.31
2022-12-04T06:51:21.198Z,82.55
2022-12-04T06:53:48.268Z,80.19
2022-12-04T06:56:18.139Z,84.46
2022-12-04T06:58:49.750Z,83.99
2022-12-04T07:01:20.743Z,80.90
2022-12-04T07:03:51.617Z,81.57
2022-12-04T07:06:27.080Z,85.42
2022-12-04T07:08:57.772Z,83.03
2022-12-04T07:11:24.381Z,85.41
2022-12-04T07:13:51.512Z,82.24
2022-12-04T07:16:21.393Z,80.21
2022-12-04T07:18:50.394Z,85.31
2022-12-04T07:21:19.622Z,81.96
2022-12-04T07:23:53.203Z,81.19
2022-12-04T07:26:20.720Z,81.80
2022-12-04T07:28:47.701Z,81.26
2022-12-04T07:31:17.088Z,84.30
2022-12-04T07:33:44.517Z,83.89
2022-12-04T07:36:17.568Z,81.42
2022-12-04T07:38:44.142Z,80.89
2022-12-04T07:41:12.708Z,81.83
2022-12-04T07:43:39.837Z,84.71
2022-12-04T07:46:13.619Z,84.58
2022-12-04T07:48:40.730Z,87.77
2022-12-04T07:51:09.902Z,83.48
2022-12-04T07:53:36.871Z,87.98
2022-12-04T07:56:07.383Z,86.17
2022-12-04T07:58:34.579Z,84.66
2022-12-04T08:01:09.858Z,87.18
2022-12-04T08:03:37.564Z,86.95
2022-12-04T08:06:07.375Z,89.06
2022-12-04T08:08:34.933Z,87.75
2022-12-04T08:11:05.976Z,88.02
2022-12-04T08:13:32.428Z,85.64
2022-12-04T08:16:02.343Z,88.41
2022-12-04T08:18:28.848Z,88.38
2022-12-04T08:20:55.278Z,88.53
2022-12-04T08:23:21.776Z,88.83
2022-12-04T08:25:48.237Z,88.04
2022-12-04T08:28:14.640Z,87.72
2022-12-04T08:30:41.087Z,88.76
2022-12-04T08:33:07.542Z,89.18
2022-12-04T08:35:34.097Z,89.53
2022-12-04T08:38:03.462Z,86.05
2022-12-04T08:40:29.884Z,86.95
2022-12-04T08:42:56.295Z,84.35
2022-12-04T08:45:22.747Z,84.96
2022-12-04T08:47:52.451Z,82.23
2022-12-04T08:50:19.281Z,82.10
2022-12-04T08:52:45.726Z,82.62
2022-12-04T08:55:12.141Z,81.18
2022-12-04T08:57:38.547Z,80.58
2022-12-04T09:00:05.699Z,80.84
2022-12-04T09:02:32.111Z,80.76
2022-12-04T09:04:58.624Z,81.32
2022-12-04T09:07:25.093Z,83.40
2022-12-04T09:09:51.486Z,80.50
2022-12-04T09:12:17.997Z,80.33
2022-12-04T09:14:44.462Z,81.47
2022-12-04T09:17:10.933Z,80.70
2022-12-04T09:19:37.460Z,80.81
2022-12-04T09:22:03.890Z,83.04
2022-12-04T09:24:30.931Z,86.01
2022-12-04T09:26:57.525Z,85.42
2022-12-04T09:29:25.603Z,83.62
2022-12-04T09:31:52.062Z,82.96
2022-12-04T09:34:18.504Z,83.07
2022-12-04T09:36:45.086Z,84.11
2022-12-04T09:39:11.580Z,83.53
2022-12-04T09:42:01.922Z,83.65
2022-12-04T09:44:44.061Z,85.95
2022-12-04T09:47:22.538Z,85.18
2022-12-04T09:50:09.179Z,84.61
2022-12-04T09:52:38.581Z,81.82
2022-12-04T09:55:12.210Z,85.20
2022-12-04T09:57:43.657Z,85.33
2022-12-04T10:00:16.100Z,82.09
2022-12-04T10:02:49.173Z,83.69
2022-12-04T10:05:37.665Z,84.50
2022-12-04T10:08:25.115Z,80.67
2022-12-04T10:11:06.421Z,81.98
2022-12-04T10:13:43.335Z,82.83
2022-12-04T10:16:22.056Z,83.99
2022-12-04T10:19:21.351Z,83.83
2022-12-04T10:22:03.722Z,83.81
2022-12-04T10:24:44.991Z,86.05
2022-12-04T10:27:25.484Z,84.70
2022-12-04T10:30:29.743Z,84.14
2022-12-04T10:33:32.253Z,85.26
2022-12-04T10:35:59.319Z,85.23
2022-12-04T10:38:37.912Z,82.94
2022-12-04T10:41:22.439Z,83.54
2022-12-04T10:43:50.120Z,85.58
2022-12-04T10:46:28.835Z,85.92
2022-12-04T10:49:01.507Z,82.36
2022-12-04T10:51:35.494Z,84.40
2022-12-04T10:54:01.969Z,84.25
2022-12-04T10:56:28.361Z,85.67
2022-12-04T10:59:03.332Z,87.41
2022-12-04T11:01:32.352Z,88.44
2022-12-04T11:04:07.668Z,88.00
2022-12-04T11:06:35.446Z,85.37
2022-12-04T11:09:03.755Z,87.05
2022-12-04T11:11:33.115Z,88.37
2022-12-04T11:14:03.704Z,87.19
2022-12-04T11:16:40.307Z,89.26
2022-12-04T11:19:24.857Z,88.48
2022-12-04T11:21:54.505Z,89.29
2022-12-04T11:24:23.081Z,87.94
2022-12-04T11:26:50.629Z,89.16
2022-12-04T11:29:20.360Z,87.48
2022-12-04T11:31:55.345Z,90.92
2022-12-04T11:34:27.231Z,89.97
2022-12-04T11:36:57.852Z,86.18
2022-12-04T11:39:40.651Z,89.29
2022-12-04T11:42:13.053Z,90.44
2022-12-04T11:44:40.439Z,88.35
2022-12-04T11:47:17.240Z,84.15
2022-12-04T11:49:44.105Z,87.33
2022-12-04T11:52:32.087Z,89.99
2022-12-04T11:55:43.326Z,91.29
2022-12-04T11:58:30.957Z,90.85
2022-12-04T12:01:34.545Z,86.66
2022-12-04T12:04:18.981Z,89.09
2022-12-04T12:07:07.688Z,87.88
2022-12-04T12:10:03.463Z,88.68
2022-12-04T12:12:49.595Z,86.02
2022-12-04T12:15:50.193Z,89.85
2022-12-04T12:18:29.789Z,87.87
2022-12-04T12:21:10.338Z,84.62
2022-12-04T12:24:01.175Z,84.38
2022-12-04T12:26:40.303Z,85.96
2022-12-04T12:29:28.533Z,85.62
2022-12-04T12:32:20.151Z,89.81
2022-12-04T12:34:47.561Z,87.13
2022-12-04T12:37:23.893Z,86.04
2022-12-04T12:39:56.117Z,86.17
2022-12-04T12:42:28.726Z,85.97
2022-12-04T12:45:24.440Z,88.04
2022-12-04T12:47:56.450Z,85.11
2022-12-04T12:50:32.050Z,87.17
2022-12-04T12:53:03.434Z,84.57
2022-12-04T12:55:47.292Z,86.28
2022-12-04T12:58:42.913Z,83.57
2022-12-04T13:01:19.702Z,85.82
2022-12-04T13:03:49.208Z,86.46
2022-12-04T13:06:27.175Z,83.68
2022-12-04T13:09:02.595Z,85.20
2022-12-04T13:11:30.790Z,82.89
2022-12-04T13:14:05.146Z,84.94
2022-12-04T13:16:34.886Z,87.14
2022-12-04T13:19:18.588Z,87.77
2022-12-04T13:22:15.213Z,85.29
2022-12-04T13:24:55.355Z,87.93
2022-12-04T13:27:59.282Z,88.82
2022-12-04T13:30:52.049Z,90.61
2022-12-04T13:33:58.939Z,85.81
2022-12-04T13:36:31.099Z,86.22
2022-12-04T13:39:09.687Z,88.36
2022-12-04T13:41:38.907Z,88.69
2022-12-04T13:44:18.171Z,89.17
2022-12-04T13:46:59.414Z,89.03
2022-12-04T13:49:28.898Z,88.18
2022-12-04T13:51:57.050Z,89.60
2022-12-04T13:54:35.628Z,90.28
2022-12-04T13:57:22.223Z,88.48
2022-12-04T13:59:49.549Z,87.90
2022-12-04T14:02:28.036Z,88.23
2022-12-04T14:05:10.258Z,89.66
2022-12-04T14:07:42.651Z,90.05
2022-12-04T14:10:15.131Z,89.66
2022-12-04T14:12:49.891Z,90.73
2022-12-04T14:15:25.732Z,89.76
2022-12-04T14:18:04.594Z,90.51
2022-12-04T14:20:33.634Z,90.91
2022-12-04T14:23:22.496Z,89.21
2022-12-04T14:25:51.149Z,90.07
2022-12-04T14:28:37.323Z,88.51
2022-12-04T14:31:33.149Z,88.13
2022-12-04T14:34:08.548Z,90.01
2022-12-04T14:36:41.084Z,90.38
2022-12-04T14:39:26.079Z,91.07
2022-12-04T14:42:03.739Z,90.45
2022-12-04T14:44:31.891Z,90.81
2022-12-04T14:47:15.176Z,89.58
2022-12-04T14:49:57.825Z,91.65
2022-12-04T14:52:31.455Z,91.38
2022-12-04T14:55:28.815Z,89.92
2022-12-04T14:58:29.095Z,89.59
2022-12-04T15:00:58.411Z,86.96
2022-12-04T15:03:26.612Z,86.83
2022-12-04T15:06:02.681Z,85.30
2022-12-04T15:08:29.246Z,86.47
2022-12-04T15:11:14.436Z,90.08
2022-12-04T15:13:41.375Z,86.79
2022-12-04T15:16:17.720Z,90.52
2022-12-04T15:19:00.894Z,88.56
2022-12-04T15:21:38.780Z,89.79
2022-12-04T15:24:23.255Z,87.90
2022-12-04T15:26:52.913Z,85.90
2022-12-04T15:29:27.400Z,85.87
2022-12-04T15:31:57.851Z,85.37
2022-12-04T15:34:48.070Z,83.32
2022-12-04T15:37:22.786Z,87.64
2022-12-04T15:39:52.464Z,88.22
2022-12-04T15:42:27.389Z,86.33
2022-12-04T15:45:00.692Z,88.60
2022-12-04T15:47:33.122Z,86.05
2022-12-04T15:50:17.853Z,85.15
2022-12-04T15:52:58.520Z,84.46
2022-12-04T15:55:27.948Z,84.16
2022-12-04T15:57:57.738Z,84.78
2022-12-04T16:00:34.206Z,84.95
2022-12-04T16:03:01.026Z,83.70
2022-12-04T16:05:32.738Z,83.36
2022-12-04T16:08:02.980Z,83.71
2022-12-04T16:10:35.270Z,84.46
2022-12-04T16:13:04.245Z,84.52
2022-12-04T16:15:39.858Z,84.67
2022-12-04T16:18:09.602Z,83.64
2022-12-04T16:20:37.513Z,82.88
2022-12-04T16:23:04.812Z,83.60
2022-12-04T16:25:31.740Z,85.04
2022-12-04T16:27:59.685Z,84.12
2022-12-04T16:30:28.116Z,87.04
2022-12-04T16:32:54.657Z,86.47
2022-12-04T16:35:21.578Z,83.17
2022-12-04T16:37:48.067Z,82.82
2022-12-04T16:40:14.948Z,86.42
2022-12-04T16:42:42.914Z,87.57
2022-12-04T16:45:24.331Z,86.00
2022-12-04T16:47:50.837Z,84.11
2022-12-04T16:50:17.301Z,83.24
2022-12-04T16:52:43.799Z,84.13
2022-12-04T16:55:39.707Z,87.06
2022-12-04T16:58:06.394Z,86.25
2022-12-04T17:00:32.883Z,83.41
2022-12-04T17:02:59.543Z,89.53
2022-12-04T17:05:29.081Z,89.15
2022-12-04T17:07:55.916Z,88.53
2022-12-04T17:10:24.229Z,84.82
2022-12-04T17:12:54.032Z,81.53
2022-12-04T17:15:20.614Z,82.65
2022-12-04T17:17:47.474Z,86.28
2022-12-04T17:20:19.455Z,86.76
2022-12-04T17:22:45.922Z,84.82
2022-12-04T17:25:12.438Z,85.10
2022-12-04T17:27:39.338Z,84.52
2022-12-04T17:30:07.577Z,82.97
2022-12-04T17:32:37.353Z,84.02
2022-12-04T17:35:05.673Z,86.24
2022-12-04T17:37:33.401Z,83.60
2022-12-04T17:39:59.826Z,88.02
2022-12-04T17:42:26.566Z,87.56
2022-12-04T17:44:53.064Z,89.95
2022-12-04T17:47:19.631Z,85.50
2022-12-04T17:49:46.069Z,89.17
2022-12-04T17:52:12.615Z,88.53
2022-12-04T17:54:39.116Z,88.91
2022-12-04T17:57:05.518Z,89.12
2022-12-04T17:59:31.949Z,87.39
2022-12-04T18:01:58.404Z,84.99
2022-12-04T18:04:25.013Z,86.92
2022-12-04T18:06:52.619Z,88.91
2022-12-04T18:09:19.183Z,87.48
2022-12-04T18:11:47.683Z,88.41
2022-12-04T18:14:17.626Z,89.32
2022-12-04T18:16:52.849Z,87.94
2022-12-04T18:19:26.887Z,88.79
2022-12-04T18:21:56.887Z,86.68
2022-12-04T18:24:24.947Z,84.38
2022-12-04T18:26:51.769Z,86.64
2022-12-04T18:29:22.079Z,87.44
2022-12-04T18:31:48.864Z,89.68
2022-12-04T18:34:15.735Z,88.30
2022-12-04T18:36:42.259Z,89.08
2022-12-04T18:39:14.223Z,87.12
2022-12-04T18:41:41.196Z,87.05
2022-12-04T18:44:08.133Z,88.95
2022-12-04T18:46:34.706Z,87.69
2022-12-04T18:49:01.726Z,90.97
2022-12-04T18:51:34.361Z,90.64
2022-12-04T18:54:06.949Z,88.71
2022-12-04T18:56:35.551Z,90.50
2022-12-04T18:59:14.719Z,89.27
2022-12-04T19:01:42.511Z,89.83
2022-12-04T19:04:11.007Z,88.24
2022-12-04T19:06:38.715Z,88.76
2022-12-04T19:09:08.344Z,89.01
2022-12-04T19:11:35.503Z,88.25
2022-12-04T19:14:06.605Z,86.83
2022-12-04T19:16:36.986Z,87.92
2022-12-04T19:19:03.527Z,88.99
2022-12-04T19:21:30.087Z,87.60
2022-12-04T19:23:59.778Z,90.28
2022-12-04T19:26:28.289Z,87.40
2022-12-04T19:28:55.566Z,87.67
2022-12-04T19:31:25.443Z,89.16
2022-12-04T19:33:54.930Z,89.82
2022-12-04T19:36:21.467Z,91.46
2022-12-04T19:38:47.985Z,91.08
2022-12-04T19:41:18.536Z,87.84
2022-12-04T19:43:50.615Z,90.80
2022-12-04T19:46:21.296Z,86.77
2022-12-04T19:48:49.641Z,89.92
2022-12-04T19:51:19.193Z,88.71
2022-12-04T19:53:46.915Z,88.31
2022-12-04T19:56:16.466Z,86.72
2022-12-04T19:58:43.476Z,88.44
2022-12-04T20:01:16.208Z,87.77
2022-12-04T20:03:43.030Z,85.61
2022-12-04T20:06:12.515Z,87.38
2022-12-04T20:08:39.056Z,85.85
2022-12-04T20:11:15.634Z,84.01
2022-12-04T20:13:42.720Z,89.70
2022-12-04T20:16:11.579Z,90.11
2022-12-04T20:18:39.906Z,90.61
2022-12-04T20:21:10.961Z,86.88
2022-12-04T20:23:38.829Z,84.57
2022-12-04T20:26:07.322Z,88.14
2022-12-04T20:28:34.443Z,87.33
2022-12-04T20:31:01.127Z,84.57
2022-12-04T20:33:27.647Z,87.42
2022-12-04T20:35:55.414Z,86.23
2022-12-04T20:38:21.844Z,87.47
2022-12-04T20:40:48.357Z,84.54
2022-12-04T20:43:14.784Z,82.86
2022-12-04T20:45:41.269Z,83.73
2022-12-04T20:48:07.818Z,83.51
2022-12-04T20:50:34.249Z,86.88
2022-12-04T20:53:00.739Z,88.16
2022-12-04T20:55:27.159Z,85.99
2022-12-04T20:57:53.616Z,84.02
2022-12-04T21:00:20.141Z,86.74
2022-12-04T21:02:46.642Z,85.44
2022-12-04T21:05:13.193Z,84.30
2022-12-04T21:07:39.677Z,85.30
2022-12-04T21:10:06.979Z,88.08
2022-12-04T21:12:52.197Z,86.61
2022-12-04T21:15:37.145Z,84.61
2022-12-04T21:18:03.847Z,85.85
2022-12-04T21:22:55.475Z,83.22
2022-12-04T21:25:21.964Z,84.82
2022-12-04T21:27:48.445Z,87.29
2022-12-04T21:30:14.966Z,88.64
2022-12-04T21:32:41.384Z,89.61
2022-12-04T21:35:08.162Z,87.72
2022-12-04T21:37:34.925Z,84.54
2022-12-04T21:40:01.669Z,89.72
2022-12-04T21:42:31.139Z,91.25
2022-12-04T21:45:01.724Z,90.45
2022-12-04T21:47:29.092Z,89.59
2022-12-04T21:49:56.232Z,88.67
2022-12-04T21:52:22.977Z,89.20
2022-12-04T21:54:51.326Z,88.33
2022-12-04T21:57:18.034Z,83.53
2022-12-04T21:59:44.723Z,84.12
2022-12-04T22:02:13.005Z,84.79
2022-12-04T22:04:40.128Z,87.62
2022-12-04T22:07:06.735Z,86.58
2022-12-04T22:09:33.354Z,83.14
2022-12-04T22:11:59.785Z,86.57
2022-12-04T22:14:26.608Z,86.64
2022-12-04T22:16:54.209Z,85.26
2022-12-04T22:19:20.799Z,84.10
2022-12-04T22:21:47.486Z,86.58
2022-12-04T22:24:13.897Z,86.25
2022-12-04T22:26:40.369Z,86.96
2022-12-04T22:29:26.985Z,87.66
2022-12-04T22:31:54.002Z,89.69
2022-12-04T22:34:20.651Z,86.07
2022-12-04T22:36:48.953Z,88.77
2022-12-04T22:39:15.418Z,89.20
2022-12-04T22:41:41.950Z,86.17
2022-12-04T22:44:08.374Z,85.08
2022-12-04T22:46:34.914Z,86.64
2022-12-04T22:49:01.480Z,87.75
2022-12-04T22:51:28.673Z,87.46
2022-12-04T22:53:57.830Z,88.34
2022-12-04T22:56:27.317Z,87.63
2022-12-04T22:58:54.637Z,88.10
2022-12-04T23:01:30.104Z,90.59
2022-12-04T23:03:56.838Z,89.01
2022-12-04T23:06:26.136Z,89.97
2022-12-04T23:09:01.753Z,88.90
2022-12-04T23:11:28.962Z,88.59
2022-12-04T23:14:03.507Z,89.65
2022-12-04T23:16:32.288Z,87.17
2022-12-04T23:18:59.381Z,89.63
2022-12-04T23:21:26.826Z,89.44
2022-12-04T23:23:54.140Z,88.72
2022-12-04T23:26:24.201Z,88.92
2022-12-04T23:28:50.738Z,86.50
2022-12-04T23:31:17.733Z,86.29
2022-12-04T23:33:44.473Z,85.78
2022-12-04T23:36:13.102Z,86.10
2022-12-04T23:38:41.201Z,86.25
2022-12-04T23:41:11.467Z,88.42
2022-12-04T23:43:38.979Z,88.30
2022-12-04T23:46:11.001Z,85.90
2022-12-04T23:48:38.935Z,90.23
2022-12-04T23:51:05.775Z,88.30
2022-12-04T23:53:32.233Z,87.16
2022-12-04T23:56:10.847Z,86.12
2022-12-04T23:58:37.927Z,89.32
